Time;durP1;ratioP1;P1;durP2;ratioP2;P2;SDS_P1;SDS_P2;PMS_P1;PMS_P2;Temp;Humidity;BMP_temperature;BMP_pressure;BME280_temperature;BME280_humidity;BME280_pressure;Samples;Min_cycle;Max_cycle;Signal;HPM_P1;HPM_P2
2021/03/23 00:01:31;;;;;;;23.70;9.57;;;;;;;7.89;66.85;101508.66;4447579;32;20081;-79
2021/03/23 00:03:57;;;;;;;18.55;9.75;;;;;;;8.02;66.49;101513.47;4437585;32;20100;-80
2021/03/23 00:06:26;;;;;;;16.92;9.23;;;;;;;8.04;67.14;101504.66;4435839;32;20811;-78
2021/03/23 00:08:55;;;;;;;20.02;9.45;;;;;;;7.96;67.10;101512.28;4440262;32;20080;-81
2021/03/23 00:11:26;;;;;;;22.25;10.00;;;;;;;8.09;66.39;101509.84;4437941;32;20469;-77
2021/03/23 00:13:54;;;;;;;27.92;9.05;;;;;;;8.10;66.77;101506.62;4435926;32;20088;-78
2021/03/23 00:16:23;;;;;;;20.70;9.43;;;;;;;7.93;66.87;101506.66;4438810;32;20073;-79
2021/03/23 00:18:49;;;;;;;18.75;8.52;;;;;;;8.00;66.84;101509.44;4438202;32;20177;-78
2021/03/23 00:21:16;;;;;;;21.30;9.68;;;;;;;8.07;66.37;101509.41;4438961;32;20254;-79
2021/03/23 00:23:42;;;;;;;17.48;8.60;;;;;;;8.22;65.93;101515.81;4425580;32;20110;-78
2021/03/23 00:26:09;;;;;;;19.65;9.43;;;;;;;8.23;66.15;101514.66;4440738;32;20081;-78
2021/03/23 00:28:36;;;;;;;16.30;8.38;;;;;;;8.33;65.94;101514.63;4438172;32;20085;-77
2021/03/23 00:31:03;;;;;;;16.52;9.18;;;;;;;8.42;65.28;101514.19;4437614;32;20037;-77
2021/03/23 00:33:28;;;;;;;20.27;9.10;;;;;;;8.51;65.39;101506.16;4437223;32;20439;-77
2021/03/23 00:35:58;;;;;;;15.25;8.98;;;;;;;8.52;65.64;101519.78;4442334;32;20065;-75
2021/03/23 00:38:25;;;;;;;16.30;9.10;;;;;;;8.67;64.95;101507.28;4438072;32;20070;-74
2021/03/23 00:40:52;;;;;;;15.32;9.07;;;;;;;8.63;65.22;101509.31;4437782;32;20111;-77
2021/03/23 00:43:19;;;;;;;19.02;8.93;;;;;;;8.49;65.93;101500.94;4440283;32;20058;-77
2021/03/23 00:45:45;;;;;;;16.95;8.88;;;;;;;8.55;65.63;101496.53;4439996;32;20069;-73
2021/03/23 00:48:12;;;;;;;17.02;8.65;;;;;;;8.75;65.04;101497.66;4439273;32;20064;-78
2021/03/23 00:50:38;;;;;;;20.98;8.95;;;;;;;8.83;65.04;101495.56;4424161;32;20144;-75
2021/03/23 00:53:05;;;;;;;17.90;9.48;;;;;;;8.92;64.66;101495.94;4430808;32;20129;-77
2021/03/23 00:55:31;;;;;;;20.08;8.98;;;;;;;8.96;64.44;101499.53;4427467;32;20152;-78
2021/03/23 00:57:56;;;;;;;20.25;9.77;;;;;;;8.90;65.22;101492.75;4428251;32;20178;-74
2021/03/23 01:00:23;;;;;;;23.02;9.13;;;;;;;8.91;65.40;101492.34;4429978;32;20083;-76
2021/03/23 01:02:49;;;;;;;15.75;9.30;;;;;;;8.93;65.03;101498.34;4427381;32;20096;-77
2021/03/23 01:05:17;;;;;;;20.73;10.15;;;;;;;8.91;65.39;101489.53;4429614;32;20080;-73
2021/03/23 01:08:04;;;;;;;19.12;10.20;;;;;;;8.95;65.65;101490.31;4427236;32;20100;-77
2021/03/23 01:10:32;;;;;;;20.45;9.38;;;;;;;8.87;65.78;101485.16;4427642;32;20393;-78
2021/03/23 01:12:58;;;;;;;18.35;9.82;;;;;;;9.03;64.77;101494.69;4427391;32;20072;-79
2021/03/23 01:15:29;;;;;;;17.67;9.88;;;;;;;8.99;65.75;101487.50;4426194;32;21191;-77
2021/03/23 01:17:55;;;;;;;18.95;9.63;;;;;;;9.07;66.08;101478.63;4426783;32;20128;-78
2021/03/23 01:20:23;;;;;;;21.52;10.25;;;;;;;9.05;65.99;101483.84;4426445;32;20046;-80
2021/03/23 01:22:49;;;;;;;23.27;10.23;;;;;;;9.14;65.84;101474.97;4427205;32;20053;-77
2021/03/23 01:25:16;;;;;;;18.33;9.98;;;;;;;9.10;66.07;101477.78;4425835;32;20057;-76
2021/03/23 01:27:42;;;;;;;24.23;11.48;;;;;;;9.19;66.22;101474.53;4424914;32;20068;-75
2021/03/23 01:30:10;;;;;;;18.77;10.50;;;;;;;9.24;66.08;101480.50;4427321;32;20050;-75
2021/03/23 01:32:37;;;;;;;20.10;11.10;;;;;;;9.26;66.12;101474.47;4426249;32;20073;-78
2021/03/23 01:35:04;;;;;;;22.25;11.12;;;;;;;9.17;66.43;101477.75;4424469;32;20034;-77
2021/03/23 01:37:30;;;;;;;20.25;10.98;;;;;;;9.25;66.65;101465.25;4427289;32;20034;-78
2021/03/23 01:39:56;;;;;;;22.40;10.85;;;;;;;9.31;66.25;101460.81;4413157;32;20068;-75
2021/03/23 01:42:21;;;;;;;19.55;10.75;;;;;;;9.39;66.41;101464.34;4428312;32;20521;-76
2021/03/23 01:45:27;;;;;;;21.20;11.45;;;;;;;9.48;65.96;101464.69;4425303;32;20033;-75
2021/03/23 01:47:56;;;;;;;22.67;11.30;;;;;;;9.53;66.04;101470.66;4427098;32;20037;-77
2021/03/23 01:50:24;;;;;;;22.37;12.27;;;;;;;9.49;65.96;101477.53;4426142;32;20418;-78
2021/03/23 01:52:59;;;;;;;24.48;10.68;;;;;;;9.40;66.57;101468.75;4427870;32;20365;-77
2021/03/23 01:55:25;;;;;;;18.62;10.70;;;;;;;9.39;66.38;101469.97;4428626;32;20157;-76
2021/03/23 01:57:52;;;;;;;23.02;11.07;;;;;;;9.29;66.77;101459.59;4426815;32;20448;-78
2021/03/23 02:00:19;;;;;;;23.65;11.02;;;;;;;9.42;66.02;101464.31;4427611;32;20111;-75
2021/03/23 02:02:44;;;;;;;22.13;11.05;;;;;;;9.51;66.14;101461.84;4426987;32;20057;-77
2021/03/23 02:05:19;;;;;;;23.45;11.43;;;;;;;9.50;65.66;101454.63;4424514;32;20394;-79
2021/03/23 02:07:44;;;;;;;24.65;12.07;;;;;;;9.53;66.35;101453.81;4428261;32;20046;-75
2021/03/23 02:10:10;;;;;;;22.42;11.65;;;;;;;9.48;66.08;101457.03;4429170;32;20052;-78
2021/03/23 02:12:37;;;;;;;29.42;12.30;;;;;;;9.48;66.36;101447.84;4428355;32;20042;-75
2021/03/23 02:15:03;;;;;;;22.52;11.57;;;;;;;9.53;66.35;101455.81;4427762;32;20056;-78
2021/03/23 02:17:35;;;;;;;21.17;11.52;;;;;;;9.64;66.12;101450.91;4428761;32;20495;-78
2021/03/23 02:20:15;;;;;;;20.80;11.63;;;;;;;9.67;65.39;101450.84;4428721;32;20537;-77
2021/03/23 02:25:20;;;;;;;24.20;11.48;;;;;;;10.16;64.75;101434.75;3986247;32;15026844;-76
2021/03/23 02:27:46;;;;;;;24.30;11.10;;;;;;;10.16;64.75;101434.75;4436934;32;20108;-77
2021/03/23 02:30:20;;;;;;;21.67;11.75;;;;;;;9.67;66.00;101433.22;4433691;32;20488;-78
2021/03/23 02:32:45;;;;;;;24.23;12.00;;;;;;;9.82;65.42;101431.88;4431446;32;20057;-76
2021/03/23 02:35:11;;;;;;;25.10;11.70;;;;;;;9.87;64.95;101437.00;4434805;32;20033;-76
2021/03/23 02:37:37;;;;;;;23.05;11.98;;;;;;;9.91;64.96;101423.72;4432700;32;20052;-75
2021/03/23 02:40:05;;;;;;;23.83;11.27;;;;;;;9.95;64.73;101422.47;4435742;32;20055;-77
2021/03/23 02:42:30;;;;;;;23.40;11.27;;;;;;;9.99;64.67;101426.06;4435103;32;20089;-77
2021/03/23 02:44:56;;;;;;;23.10;12.00;;;;;;;10.03;64.83;101424.00;4433923;32;20227;-77
2021/03/23 02:47:21;;;;;;;23.83;12.75;;;;;;;10.04;64.82;101414.31;4438958;32;20422;-77
2021/03/23 02:49:47;;;;;;;16.87;10.13;;;;;;;10.10;64.21;101418.31;4433299;32;20030;-74
2021/03/23 02:52:13;;;;;;;23.08;11.98;;;;;;;10.07;64.49;101415.56;4432860;32;20135;-79
2021/03/23 02:54:40;;;;;;;20.80;11.02;;;;;;;10.08;64.11;101414.34;4436564;32;20071;-76
2021/03/23 02:57:07;;;;;;;23.25;12.07;;;;;;;10.00;64.01;101404.34;4433922;32;20030;-78
2021/03/23 02:59:33;;;;;;;21.42;12.13;;;;;;;9.98;64.83;101396.31;4432597;32;20473;-76
2021/03/23 03:02:00;;;;;;;27.37;12.35;;;;;;;9.93;65.51;101398.78;4434211;32;20077;-80
2021/03/23 03:04:25;;;;;;;24.98;11.93;;;;;;;9.99;65.08;101402.75;4431611;32;20160;-77
2021/03/23 03:06:51;;;;;;;20.20;11.15;;;;;;;10.03;65.38;101395.06;4432228;32;20046;-78
2021/03/23 03:09:16;;;;;;;25.27;12.35;;;;;;;10.03;64.74;101398.69;4431357;32;20096;-76
2021/03/23 03:11:42;;;;;;;19.85;11.20;;;;;;;10.19;64.35;101394.53;4431036;32;20066;-80
2021/03/23 03:14:08;;;;;;;20.67;11.18;;;;;;;10.26;64.13;101398.03;4428069;32;20501;-78
2021/03/23 03:16:33;;;;;;;25.75;11.63;;;;;;;10.33;64.09;101394.31;4429771;32;20038;-75
2021/03/23 03:18:59;;;;;;;23.65;10.98;;;;;;;10.19;64.77;101389.69;4432307;32;20133;-77
2021/03/23 03:21:25;;;;;;;20.88;10.98;;;;;;;10.02;65.26;101388.66;4432261;32;20098;-78
2021/03/23 03:23:50;;;;;;;21.08;10.98;;;;;;;10.14;65.11;101387.34;4429627;32;20119;-79
2021/03/23 03:26:16;;;;;;;19.90;10.65;;;;;;;10.13;64.86;101390.56;4428707;32;20104;-75
2021/03/23 03:28:49;;;;;;;17.02;10.48;;;;;;;10.39;64.28;101382.19;4429545;32;20030;-77
2021/03/23 03:31:18;;;;;;;21.30;10.98;;;;;;;10.52;63.89;101382.44;4429200;32;20037;-77
2021/03/23 03:33:44;;;;;;;19.60;11.35;;;;;;;10.39;64.00;101373.75;4432953;32;20086;-77
2021/03/23 03:36:09;;;;;;;16.52;9.60;;;;;;;10.50;63.78;101379.25;4423356;32;20893;-74
2021/03/23 03:38:35;;;;;;;21.65;11.02;;;;;;;10.51;63.37;101375.19;4422348;32;20472;-77
2021/03/23 03:41:00;;;;;;;22.60;10.15;;;;;;;10.61;63.27;101377.09;4421413;32;20086;-75
2021/03/23 03:43:29;;;;;;;20.37;9.57;;;;;;;10.45;63.31;101374.88;4420731;32;20099;-76
2021/03/23 03:45:55;;;;;;;17.52;10.63;;;;;;;10.40;64.15;101369.72;4420910;32;20033;-79
2021/03/23 03:48:21;;;;;;;17.87;10.40;;;;;;;10.46;63.92;101367.25;4421883;32;20089;-76
2021/03/23 03:50:47;;;;;;;16.83;10.48;;;;;;;10.47;63.82;101371.66;4417615;32;20108;-76
2021/03/23 03:53:13;;;;;;;17.80;9.82;;;;;;;10.37;63.98;101364.16;4422446;32;20429;-75
2021/03/23 03:55:42;;;;;;;17.50;10.23;;;;;;;10.29;64.06;101362.63;4417834;32;20077;-78
2021/03/23 03:58:08;;;;;;;17.30;9.95;;;;;;;10.30;63.93;101367.03;4421084;32;20478;-78
2021/03/23 04:00:34;;;;;;;17.10;10.02;;;;;;;10.34;64.25;101362.97;4414231;32;20096;-77
2021/03/23 04:03:02;;;;;;;17.40;9.43;;;;;;;10.33;64.05;101354.94;4418961;32;20085;-76
2021/03/23 04:05:32;;;;;;;19.45;9.70;;;;;;;10.33;63.99;101352.94;4417778;32;20112;-76
2021/03/23 04:07:58;;;;;;;16.33;10.07;;;;;;;10.41;63.63;101362.06;4419299;32;20064;-77
2021/03/23 04:10:25;;;;;;;18.67;10.50;;;;;;;10.42;63.83;101367.28;4416231;32;20023;-77
2021/03/23 04:12:51;;;;;;;18.90;10.80;;;;;;;10.42;64.37;101360.84;4420507;32;20101;-77
2021/03/23 04:15:21;;;;;;;15.48;9.70;;;;;;;10.21;64.88;101364.75;4421230;32;20093;-76
2021/03/23 04:17:47;;;;;;;17.33;10.27;;;;;;;10.26;64.90;101360.66;4416797;32;20611;-79
2021/03/23 04:20:14;;;;;;;20.30;10.77;;;;;;;10.29;64.41;101359.81;4418249;32;20038;-79
2021/03/23 04:22:40;;;;;;;18.87;11.18;;;;;;;10.33;64.62;101358.56;4420498;32;20538;-81
2021/03/23 04:25:09;;;;;;;23.23;11.90;;;;;;;10.29;64.88;101351.38;4417717;32;20056;-80
2021/03/23 04:27:35;;;;;;;17.00;10.25;;;;;;;10.28;64.97;101350.59;4417847;32;20105;-79
2021/03/23 04:30:01;;;;;;;20.00;11.10;;;;;;;10.29;64.42;101343.75;4416711;32;20144;-78
2021/03/23 04:32:26;;;;;;;20.17;10.50;;;;;;;10.29;64.36;101346.56;4413965;32;20053;-79
2021/03/23 04:34:53;;;;;;;24.50;10.57;;;;;;;10.27;64.50;101351.03;4421436;32;20076;-80
2021/03/23 04:37:19;;;;;;;16.77;10.38;;;;;;;10.30;64.31;101352.97;4420474;32;20510;-77
2021/03/23 04:39:44;;;;;;;16.55;9.07;;;;;;;10.37;63.95;101348.06;4414439;32;20462;-75
2021/03/23 04:42:10;;;;;;;17.20;9.00;;;;;;;10.26;63.77;101353.03;4425165;32;20073;-79
2021/03/23 04:44:36;;;;;;;13.27;7.80;;;;;;;10.10;62.98;101355.66;4421851;32;20105;-78
2021/03/23 04:47:02;;;;;;;11.30;6.53;;;;;;;9.97;63.21;101351.75;4425830;32;20053;-76
2021/03/23 04:49:28;;;;;;;10.10;6.37;;;;;;;10.04;61.98;101349.66;4419097;32;20052;-77
2021/03/23 04:51:53;;;;;;;9.85;5.40;;;;;;;10.06;61.66;101344.44;4420411;32;20069;-77
2021/03/23 04:54:19;;;;;;;9.00;5.53;;;;;;;10.01;59.72;101346.91;4420368;32;20136;-75
2021/03/23 04:56:44;;;;;;;8.55;4.10;;;;;;;9.85;60.44;101346.69;4420487;32;20108;-78
2021/03/23 04:59:11;;;;;;;9.43;4.60;;;;;;;9.86;60.64;101349.09;4416612;32;20158;-78
2021/03/23 05:01:38;;;;;;;5.90;4.10;;;;;;;9.77;60.54;101347.97;4420484;32;20076;-77
2021/03/23 05:04:06;;;;;;;7.78;4.05;;;;;;;9.82;60.35;101348.31;4421458;32;20065;-76
2021/03/23 05:06:32;;;;;;;6.55;4.03;;;;;;;9.78;59.61;101343.94;4421936;32;20022;-78
2021/03/23 05:08:58;;;;;;;9.07;3.90;;;;;;;9.85;59.50;101341.84;4415162;32;20042;-77
2021/03/23 05:11:28;;;;;;;6.65;4.15;;;;;;;9.89;59.58;101344.63;4416899;32;20018;-77
2021/03/23 05:13:54;;;;;;;5.53;3.37;;;;;;;9.91;59.16;101337.38;4418005;32;20103;-78
2021/03/23 05:16:21;;;;;;;5.53;3.20;;;;;;;10.03;58.60;101338.81;4420818;32;20065;-76
2021/03/23 05:18:47;;;;;;;5.75;3.12;;;;;;;10.04;58.35;101343.25;4420036;32;20100;-76
2021/03/23 05:21:13;;;;;;;4.55;2.62;;;;;;;9.99;58.17;101344.50;4414301;32;20481;-78
2021/03/23 05:23:38;;;;;;;4.18;2.58;;;;;;;9.91;57.37;101342.19;4416753;32;20135;-78
2021/03/23 05:26:05;;;;;;;5.70;2.45;;;;;;;9.75;58.03;101337.16;4417280;32;20052;-78
2021/03/23 05:28:31;;;;;;;11.52;2.80;;;;;;;9.73;57.91;101336.00;4421292;32;20086;-79
2021/03/23 05:30:57;;;;;;;3.35;2.22;;;;;;;9.77;58.16;101340.34;4420016;32;20025;-78
2021/03/23 05:33:23;;;;;;;13.43;2.75;;;;;;;9.57;57.67;101344.16;4418296;32;20355;-77
2021/03/23 05:35:51;;;;;;;4.78;2.47;;;;;;;9.65;57.73;101328.84;4418600;32;20127;-78
2021/03/23 05:38:17;;;;;;;7.12;2.10;;;;;;;9.66;57.66;101334.03;4417619;32;20034;-79
2021/03/23 05:40:45;;;;;;;10.55;2.58;;;;;;;9.57;57.92;101338.53;4420049;32;20081;-78
2021/03/23 05:45:57;;;;;;;5.85;1.70;;;;;;;10.04;56.87;101349.66;3987490;32;15028623;-77
2021/03/23 05:48:27;;;;;;;8.00;2.42;;;;;;;10.04;56.87;101349.66;4438464;32;20021;-76
2021/03/23 05:54:08;;;;;;;3.35;1.77;;;;;;;9.89;56.63;101342.63;4002859;31;15016261;-77
2021/03/23 05:56:37;;;;;;;4.45;1.70;;;;;;;9.89;56.63;101342.63;4459393;32;20033;-79
2021/03/23 05:59:13;;;;;;;5.93;1.60;;;;;;;9.46;57.39;101332.25;4457505;32;20485;-75
2021/03/23 06:01:48;;;;;;;3.20;2.20;;;;;;;9.30;57.97;101337.63;4458642;32;20037;-75
2021/03/23 06:09:41;;;;;;;6.85;2.20;;;;;;;9.82;57.20;101336.28;3988233;31;15019628;-77
2021/03/23 06:33:31;;;;;;;6.85;3.40;;;;;;;10.45;55.23;101326.25;3984857;32;15022008;-78
2021/03/23 06:36:02;;;;;;;9.57;3.85;;;;;;;10.45;55.23;101326.25;4438037;32;20018;-79
2021/03/23 06:38:32;;;;;;;7.07;3.80;;;;;;;9.97;55.76;101320.81;4430809;32;20558;-76
2021/03/23 06:41:26;;;;;;;11.02;3.75;;;;;;;9.85;56.49;101324.97;4440224;32;20115;-79
2021/03/23 06:54:37;;;;;;;11.07;4.40;;;;;;;10.33;55.65;101318.37;3988142;32;15023821;-77
2021/03/23 06:59:59;;;;;;;9.80;4.20;;;;;;;9.92;56.46;101322.06;3983590;32;15024423;-77
2021/03/23 07:05:31;;;;;;;14.75;5.70;;;;;;;10.32;55.95;101328.03;3980193;32;15023653;-75
2021/03/23 07:08:01;;;;;;;9.27;5.03;;;;;;;10.32;55.95;101328.03;4419552;32;20350;-80
2021/03/23 07:10:31;;;;;;;8.30;4.40;;;;;;;9.80;56.64;101319.03;4433771;32;20065;-80
2021/03/23 07:12:58;;;;;;;8.10;5.00;;;;;;;9.72;56.90;101321.13;4437621;32;20075;-79
2021/03/23 07:15:27;;;;;;;9.95;5.22;;;;;;;9.83;56.99;101327.44;4435799;32;20064;-77
2021/03/23 07:17:57;;;;;;;7.87;4.28;;;;;;;9.96;56.68;101327.66;4438032;32;20091;-78
2021/03/23 07:20:45;;;;;;;11.75;4.87;;;;;;;9.91;56.35;101319.69;4431740;32;20034;-80
2021/03/23 07:23:34;;;;;;;15.02;4.62;;;;;;;9.92;56.38;101324.13;4433032;32;20160;-76
2021/03/23 07:26:28;;;;;;;8.50;4.57;;;;;;;9.98;56.04;101316.81;4422452;32;20037;-77
2021/03/23 07:29:21;;;;;;;11.45;5.53;;;;;;;9.96;56.28;101322.03;4429428;32;20063;-77
2021/03/23 07:32:01;;;;;;;16.67;5.05;;;;;;;10.22;55.67;101324.16;4432339;32;20037;-79
2021/03/23 07:40:23;;;;;;;10.48;4.85;;;;;;;10.54;54.69;101326.50;3978338;32;15026082;-77
2021/03/23 07:43:16;;;;;;;10.68;5.65;;;;;;;10.54;54.69;101326.50;4436345;32;20076;-77
2021/03/23 07:54:03;;;;;;;14.73;5.40;;;;;;;11.12;53.50;101321.16;3982163;32;15022398;-78
2021/03/23 08:05:19;;;;;;;9.15;3.80;;;;;;;10.93;53.32;101324.72;3977237;32;15022442;-78
2021/03/23 08:08:02;;;;;;;13.20;5.07;;;;;;;10.66;54.34;101334.38;4417345;32;20532;-78
2021/03/23 08:19:23;;;;;;;6.85;3.17;;;;;;;11.06;53.24;101316.44;3986906;31;15016824;-78
2021/03/23 08:32:56;;;;;;;9.00;3.05;;;;;;;11.29;52.96;101322.88;3984597;32;15023916;-81
2021/03/23 08:35:32;;;;;;;14.68;3.50;;;;;;;11.29;52.96;101322.88;4436473;32;20128;-79
2021/03/23 08:43:12;;;;;;;7.25;3.90;;;;;;;11.59;51.99;101325.53;3982657;32;15022044;-81
2021/03/23 08:45:47;;;;;;;6.32;3.10;;;;;;;11.13;52.43;101319.13;4437125;32;20407;-87
2021/03/23 08:51:00;;;;;;;10.90;3.37;;;;;;;11.84;50.94;101314.59;4125326;31;15015601;-81
2021/03/23 08:56:10;;;;;;;7.00;3.40;;;;;;;11.82;50.75;101319.09;3984253;32;15025091;-81
2021/03/23 09:01:41;;;;;;;6.18;3.85;;;;;;;11.89;50.53;101319.75;3978078;32;15029338;-80
2021/03/23 09:32:25;;;;;;;7.43;3.60;;;;;;;12.47;48.93;101291.88;3981446;32;15023422;-79
2021/03/23 09:35:13;;;;;;;7.97;3.10;;;;;;;12.47;48.93;101291.88;4435869;32;20073;-81
2021/03/23 09:45:52;;;;;;;6.45;3.20;;;;;;;12.28;49.37;101290.72;3980648;32;15022942;-78
2021/03/23 09:51:01;;;;;;;11.70;3.90;;;;;;;12.48;48.86;101299.91;3980729;32;15021982;-78
2021/03/23 09:58:42;;;;;;;18.70;3.85;;;;;;;12.54;48.79;101291.72;3980075;32;15021680;-77
2021/03/23 10:01:24;;;;;;;11.05;3.80;;;;;;;12.54;48.79;101291.72;4430017;32;20729;-79
2021/03/23 10:03:52;;;;;;;7.30;3.28;;;;;;;12.28;48.76;101282.25;4434060;32;21521;-79
2021/03/23 10:06:21;;;;;;;6.57;3.10;;;;;;;12.31;48.66;101281.37;4433584;32;20635;-79
2021/03/23 10:11:42;;;;;;;7.15;3.05;;;;;;;12.70;48.64;101272.75;3989030;31;15067668;-77
2021/03/23 10:14:11;;;;;;;9.93;3.40;;;;;;;12.70;48.64;101272.75;4453491;32;20064;-79
2021/03/23 10:16:40;;;;;;;7.20;2.90;;;;;;;12.39;49.17;101263.03;4438287;32;20080;-79
2021/03/23 10:19:12;;;;;;;5.87;3.15;;;;;;;12.41;48.93;101263.38;4451377;32;20470;-81
2021/03/23 10:21:45;;;;;;;8.13;3.10;;;;;;;11.91;49.36;101262.91;4451812;32;20080;-81
2021/03/23 10:24:19;;;;;;;13.02;3.83;;;;;;;12.33;49.06;101273.25;4453851;32;20032;-80
2021/03/23 10:26:48;;;;;;;17.87;4.23;;;;;;;12.37;48.96;101273.97;4455754;32;20072;-80
2021/03/23 10:31:56;;;;;;;15.70;4.03;;;;;;;12.59;47.86;101254.50;3997197;31;15017690;-80
2021/03/23 10:34:32;;;;;;;10.13;3.90;;;;;;;12.45;48.06;101260.50;4452395;32;20199;-78
2021/03/23 10:37:01;;;;;;;11.98;4.15;;;;;;;12.41;48.18;101273.87;4453813;32;20084;-79
2021/03/23 10:42:26;;;;;;;9.13;4.32;;;;;;;12.89;47.84;101263.41;3995747;31;15022582;-75
2021/03/23 10:45:10;;;;;;;11.95;4.43;;;;;;;12.89;47.84;101263.41;4450139;32;20037;-77
2021/03/23 10:47:40;;;;;;;10.15;4.50;;;;;;;12.38;48.65;101267.09;4437096;32;20065;-76
2021/03/23 10:50:16;;;;;;;13.38;4.82;;;;;;;12.23;49.20;101263.00;4448556;32;20104;-81
2021/03/23 10:52:42;;;;;;;11.23;5.15;;;;;;;12.32;48.73;101268.84;4437482;32;20041;-80
2021/03/23 10:58:10;;;;;;;13.40;5.30;;;;;;;12.37;49.18;101262.69;3982776;32;15022227;-82
2021/03/23 11:00:37;;;;;;;;;;;;;;;12.42;48.84;101262.16;4429481;32;20414;-76
2021/03/23 11:06:03;;;;;;;11.40;5.05;;;;;;;12.88;47.97;101251.09;3978574;32;15021936;-82
2021/03/23 11:08:30;;;;;;;11.23;4.97;;;;;;;12.89;47.97;101251.34;4427948;32;20155;-80
2021/03/23 11:10:58;;;;;;;16.62;5.43;;;;;;;12.57;48.52;101240.81;4427210;32;20571;-82
2021/03/23 11:13:25;;;;;;;10.45;5.65;;;;;;;12.64;48.21;101234.22;4428316;32;20042;-83
2021/03/23 11:15:55;;;;;;;13.93;6.80;;;;;;;12.50;48.66;101234.53;4431464;32;20429;-81
2021/03/23 11:21:08;;;;;;;17.85;6.20;;;;;;;13.27;47.88;101233.37;3981342;32;15024340;-81
2021/03/23 11:23:40;;;;;;;12.23;5.90;;;;;;;13.27;47.88;101233.37;4430421;32;20381;-80
2021/03/23 11:26:12;;;;;;;17.15;6.35;;;;;;;13.07;48.06;101231.94;4436736;32;20071;-76
2021/03/23 11:28:38;;;;;;;15.43;6.07;;;;;;;13.20;47.20;101227.91;4436526;32;20045;-79
2021/03/23 11:31:07;;;;;;;15.07;6.12;;;;;;;13.36;47.00;101215.78;4433230;32;20081;-77
2021/03/23 11:33:34;;;;;;;12.43;6.65;;;;;;;13.46;46.73;101204.16;4433682;32;20372;-76
2021/03/23 11:36:01;;;;;;;12.10;5.60;;;;;;;13.50;46.86;101216.16;4432776;32;20029;-76
2021/03/23 11:38:28;;;;;;;15.32;6.72;;;;;;;13.51;46.88;101217.78;4433485;32;20111;-76
2021/03/23 11:40:56;;;;;;;13.48;5.70;;;;;;;13.46;47.21;101204.16;4432166;32;20108;-74
2021/03/23 11:43:35;;;;;;;17.48;6.50;;;;;;;13.49;47.28;101210.97;4432471;32;20069;-75
2021/03/23 11:46:09;;;;;;;12.98;7.05;;;;;;;13.35;47.27;101208.53;4431438;32;20037;-77
2021/03/23 11:48:37;;;;;;;11.52;6.50;;;;;;;12.84;48.74;101215.12;4433301;32;20401;-76
2021/03/23 11:51:04;;;;;;;11.45;6.90;;;;;;;12.88;48.64;101215.81;4428246;32;20417;-76
2021/03/23 11:53:30;;;;;;;14.68;6.47;;;;;;;12.92;48.44;101220.16;4434616;32;20053;-76
2021/03/23 11:55:56;;;;;;;17.37;7.35;;;;;;;12.89;48.52;101211.78;4432830;32;20122;-74
2021/03/23 11:58:23;;;;;;;16.60;7.50;;;;;;;12.88;48.71;101202.50;4431983;32;20037;-77
2021/03/23 12:00:48;;;;;;;11.48;6.70;;;;;;;12.90;48.94;101210.53;4431482;32;20081;-76
2021/03/23 12:03:16;;;;;;;11.50;7.00;;;;;;;12.83;48.17;101207.91;4418211;32;20481;-79
2021/03/23 12:05:43;;;;;;;14.18;7.32;;;;;;;12.99;48.65;101205.88;4417234;32;20081;-79
2021/03/23 12:16:16;;;;;;;19.33;8.02;;;;;;;13.50;48.00;101187.88;3971612;32;15024742;-75
2021/03/23 12:18:52;;;;;;;19.67;7.70;;;;;;;13.28;48.36;101186.91;4418679;32;20045;-78
2021/03/23 12:21:19;;;;;;;10.43;6.70;;;;;;;13.44;47.86;101186.06;4420496;32;20062;-76
2021/03/23 12:23:45;;;;;;;19.17;8.00;;;;;;;13.52;47.85;101188.25;4421442;32;20037;-77
2021/03/23 12:26:12;;;;;;;15.43;7.00;;;;;;;13.68;47.37;101182.50;4424376;32;20417;-77
2021/03/23 12:28:40;;;;;;;14.48;6.93;;;;;;;13.72;47.32;101191.69;4418040;32;20084;-76
2021/03/23 12:31:06;;;;;;;18.42;7.93;;;;;;;13.78;46.82;101192.72;4421148;32;20056;-76
2021/03/23 12:33:31;;;;;;;15.75;7.82;;;;;;;13.76;46.94;101181.06;4420152;32;20077;-78
2021/03/23 12:35:57;;;;;;;15.35;8.10;;;;;;;14.07;46.40;101167.97;4421688;32;20508;-77
2021/03/23 12:38:23;;;;;;;13.70;7.57;;;;;;;13.99;46.85;101162.97;4423245;32;21073;-77
2021/03/23 12:40:49;;;;;;;13.23;7.45;;;;;;;13.97;46.75;101180.41;4422219;32;20065;-76
2021/03/23 12:43:21;;;;;;;17.87;8.20;;;;;;;14.05;46.42;101173.28;4423179;32;20458;-74
2021/03/23 12:45:48;;;;;;;11.98;7.00;;;;;;;14.00;46.19;101168.16;4426153;32;20981;-76
2021/03/23 12:48:14;;;;;;;21.98;8.27;;;;;;;14.01;46.34;101166.16;4419061;32;20479;-76
2021/03/23 12:50:40;;;;;;;19.33;8.43;;;;;;;14.13;46.25;101167.38;4420047;32;20081;-76
2021/03/23 12:53:09;;;;;;;18.45;8.50;;;;;;;14.02;46.58;101162.06;4421977;32;20046;-80
2021/03/23 12:55:37;;;;;;;17.83;8.25;;;;;;;13.81;46.96;101157.09;4423566;32;20536;-78
2021/03/23 12:58:06;;;;;;;15.10;8.20;;;;;;;14.01;46.92;101140.69;4423086;32;20106;-79
2021/03/23 13:00:37;;;;;;;15.50;8.43;;;;;;;14.42;45.79;101156.78;4418435;32;20065;-80
2021/03/23 13:03:03;;;;;;;21.52;8.38;;;;;;;14.36;45.80;101128.22;4420881;32;20100;-77
2021/03/23 13:05:30;;;;;;;18.73;9.02;;;;;;;14.72;45.20;101136.31;4418383;32;20073;-77
2021/03/23 13:08:01;;;;;;;24.67;8.90;;;;;;;14.50;45.66;101133.44;4419830;32;20068;-75
2021/03/23 13:13:24;;;;;;;16.00;8.27;;;;;;;15.51;44.17;101119.66;3951919;32;15729379;-77
2021/03/23 13:15:51;;;;;;;16.10;8.70;;;;;;;15.51;44.17;101119.66;4430101;32;20137;-76
2021/03/23 13:18:19;;;;;;;19.10;8.43;;;;;;;15.41;44.07;101109.53;4428181;32;20045;-78
2021/03/23 13:20:45;;;;;;;16.25;8.63;;;;;;;15.44;43.93;101112.19;4427776;32;20486;-78
2021/03/23 13:23:22;;;;;;;17.23;8.25;;;;;;;15.40;44.15;101114.38;4428234;32;20439;-79
2021/03/23 13:25:54;;;;;;;17.37;9.57;;;;;;;15.08;44.69;101117.59;4432521;32;20799;-76
2021/03/23 13:30:59;;;;;;;19.27;8.77;;;;;;;14.83;45.75;101109.22;3970082;32;15026147;-75
2021/03/23 13:33:25;;;;;;;19.30;9.40;;;;;;;14.36;46.63;101101.97;4421330;32;20172;-75
2021/03/23 13:35:53;;;;;;;22.20;8.35;;;;;;;14.21;46.81;101115.78;4421963;32;20675;-83
2021/03/23 13:38:19;;;;;;;15.75;9.15;;;;;;;13.99;47.50;101109.19;4419228;32;20050;-80
2021/03/23 13:40:47;;;;;;;14.10;8.35;;;;;;;13.81;47.92;101104.13;4416960;32;20038;-81
2021/03/23 13:43:19;;;;;;;13.57;7.82;;;;;;;13.90;47.81;101107.06;4420961;32;20077;-78
2021/03/23 13:48:30;;;;;;;16.97;7.87;;;;;;;13.90;47.78;101087.25;3993332;31;15015481;-77
2021/03/23 13:50:59;;;;;;;16.02;8.10;;;;;;;13.76;48.35;101104.69;4447685;32;20132;-74
2021/03/23 13:53:28;;;;;;;15.48;8.48;;;;;;;13.67;48.72;101098.13;4450008;32;20564;-76
2021/03/23 13:55:57;;;;;;;22.08;8.25;;;;;;;13.50;49.20;101088.16;4449028;32;20076;-73
2021/03/23 13:58:23;;;;;;;14.23;8.18;;;;;;;13.67;48.53;101090.44;4448160;32;20072;-73
2021/03/23 14:00:49;;;;;;;18.35;8.48;;;;;;;13.66;48.76;101090.87;4442717;32;20114;-76
2021/03/23 14:03:16;;;;;;;11.90;7.50;;;;;;;13.88;48.13;101095.41;4440173;32;20112;-75
2021/03/23 14:05:42;;;;;;;19.05;8.32;;;;;;;13.71;48.76;101098.78;4439722;32;20076;-74
2021/03/23 14:08:17;;;;;;;14.75;8.13;;;;;;;13.70;48.72;101098.00;4438479;32;20168;-73
2021/03/23 14:10:45;;;;;;;25.08;8.90;;;;;;;13.44;49.40;101079.41;4435691;32;20434;-74
2021/03/23 14:13:11;;;;;;;26.48;8.45;;;;;;;13.44;49.58;101073.75;4439633;32;20140;-77
2021/03/23 14:15:38;;;;;;;18.05;8.77;;;;;;;13.67;49.25;101086.81;4437144;32;20088;-72
2021/03/23 14:18:06;;;;;;;14.15;8.25;;;;;;;13.79;48.99;101071.88;4438443;32;20417;-75
2021/03/23 14:20:33;;;;;;;16.50;7.80;;;;;;;13.75;48.99;101063.50;4440642;32;20452;-78
2021/03/23 14:23:10;;;;;;;18.08;8.77;;;;;;;13.93;48.62;101068.59;4438797;32;20140;-75
2021/03/23 14:25:47;;;;;;;17.33;8.52;;;;;;;13.89;48.67;101067.91;4440423;32;20101;-76
2021/03/23 14:28:24;;;;;;;19.80;8.38;;;;;;;13.94;48.55;101067.34;4439942;32;20543;-78
2021/03/23 14:30:51;;;;;;;15.60;8.32;;;;;;;13.75;49.11;101060.66;4441544;32;20037;-78